Time;durP1;ratioP1;P1;durP2;ratioP2;P2;SDS_P1;SDS_P2;PMS_P1;PMS_P2;Temp;Humidity;BMP_temperature;BMP_pressure;BME280_temperature;BME280_humidity;BME280_pressure;Samples;Min_cycle;Max_cycle;Signal;HPM_P1;HPM_P2
2022/03/08 00:01:49;;;;;;;6.38;5.55;;;;;;;-0.15;70.09;100971.25;10402874;28;20401;-72
2022/03/08 00:06:51;;;;;;;9.07;7.00;;;;;;;-0.18;69.85;100983.19;10402448;28;20056;-72
2022/03/08 00:11:53;;;;;;;8.40;7.47;;;;;;;-0.12;69.26;100979.09;10419883;28;20099;-72
2022/03/08 00:16:55;;;;;;;8.60;7.55;;;;;;;-0.07;69.99;100979.19;10420375;28;20050;-72
2022/03/08 00:21:57;;;;;;;11.35;7.28;;;;;;;-0.44;70.18;100980.81;10401940;28;20064;-72
2022/03/08 00:26:58;;;;;;;7.82;6.18;;;;;;;-0.36;70.52;100979.28;10419849;28;20037;-71
2022/03/08 00:32:00;;;;;;;8.20;5.75;;;;;;;-0.70;70.53;100980.06;10420264;28;20053;-71
2022/03/08 00:37:02;;;;;;;7.97;5.70;;;;;;;-0.89;72.13;100976.03;10419153;28;20037;-72
2022/03/08 00:42:04;;;;;;;9.88;5.25;;;;;;;-0.51;71.57;100973.69;10419819;28;20057;-72
2022/03/08 00:47:09;;;;;;;4.90;4.32;;;;;;;-0.47;71.60;100977.25;10419507;28;20045;-71
2022/03/08 00:52:10;;;;;;;4.28;3.80;;;;;;;-0.80;72.65;100966.00;10401215;28;20472;-71
2022/03/08 00:57:12;;;;;;;9.05;5.20;;;;;;;-1.15;73.15;100964.97;10400916;28;20041;-71
2022/03/08 01:02:13;;;;;;;5.00;4.50;;;;;;;-1.13;74.22;100955.56;10418076;28;20045;-72
2022/03/08 01:07:16;;;;;;;6.68;5.80;;;;;;;-1.13;74.48;100960.72;10400292;28;20048;-71
2022/03/08 01:12:18;;;;;;;7.18;5.50;;;;;;;-1.05;74.64;100948.06;10418366;28;20069;-71
2022/03/08 01:17:20;;;;;;;6.38;5.20;;;;;;;-1.03;74.44;100954.13;10400932;28;20030;-71
2022/03/08 01:22:22;;;;;;;5.50;5.00;;;;;;;-1.06;74.74;100946.31;10398439;28;20053;-72
2022/03/08 01:27:24;;;;;;;5.78;5.20;;;;;;;-1.03;74.51;100942.09;10399478;28;20049;-71
2022/03/08 01:32:25;;;;;;;5.95;5.25;;;;;;;-1.27;74.24;100941.38;10399493;28;20053;-71
2022/03/08 01:37:27;;;;;;;5.88;4.78;;;;;;;-1.33;74.92;100936.00;10399554;28;20042;-73
2022/03/08 01:42:29;;;;;;;6.07;5.10;;;;;;;-1.39;74.98;100926.38;10416819;28;20052;-74
2022/03/08 01:47:30;;;;;;;6.00;5.13;;;;;;;-1.52;75.19;100930.28;10398869;28;20111;-74
2022/03/08 01:52:33;;;;;;;6.75;5.45;;;;;;;-1.54;75.72;100921.63;10398567;28;20057;-73
2022/03/08 01:57:35;;;;;;;7.95;5.53;;;;;;;-1.10;74.83;100921.25;10416852;28;20120;-74
2022/03/08 02:02:36;;;;;;;6.60;5.50;;;;;;;-1.51;74.24;100926.00;10398015;28;20061;-73
2022/03/08 02:07:38;;;;;;;5.85;5.10;;;;;;;-1.54;75.78;100926.78;10416076;28;20465;-73
2022/03/08 02:12:40;;;;;;;7.22;5.30;;;;;;;-1.33;75.39;100920.53;10415732;28;20052;-74
2022/03/08 02:17:41;;;;;;;6.57;6.00;;;;;;;-1.19;74.64;100916.69;10397504;28;20046;-73
2022/03/08 02:22:45;;;;;;;5.55;5.05;;;;;;;-1.30;74.97;100908.59;10415172;28;20049;-73
2022/03/08 02:27:51;;;;;;;6.70;5.68;;;;;;;-1.67;76.44;100906.63;10414992;28;20049;-73
2022/03/08 02:32:53;;;;;;;5.13;4.63;;;;;;;-1.95;77.61;100919.41;10396876;28;20080;-74
2022/03/08 02:38:04;;;;;;;7.05;5.82;;;;;;;-1.91;77.60;100918.69;10415033;28;20041;-73
2022/03/08 02:43:08;;;;;;;8.25;6.20;;;;;;;-1.83;77.87;100918.13;10397589;28;20060;-73
2022/03/08 02:48:11;;;;;;;9.05;6.25;;;;;;;-1.93;76.06;100930.66;10398855;28;20037;-73
2022/03/08 02:53:12;;;;;;;6.75;6.05;;;;;;;-1.91;77.23;100929.00;10399146;28;20080;-73
2022/03/08 02:58:14;;;;;;;6.95;6.25;;;;;;;-2.20;78.20;100926.34;10399285;28;20100;-73
2022/03/08 03:03:17;;;;;;;6.05;5.45;;;;;;;-2.09;78.37;100924.13;10415772;28;20048;-73
2022/03/08 03:08:18;;;;;;;6.88;6.18;;;;;;;-1.83;77.20;100920.69;10397483;28;20501;-73
2022/03/08 03:13:20;;;;;;;6.72;5.78;;;;;;;-2.13;78.25;100932.56;10398835;28;20045;-73
2022/03/08 03:18:21;;;;;;;8.23;5.78;;;;;;;-1.99;78.28;100925.28;10415745;28;20041;-73
2022/03/08 03:23:23;;;;;;;10.05;5.22;;;;;;;-2.17;78.21;100926.47;10415478;28;20041;-73
2022/03/08 03:28:25;;;;;;;7.00;6.20;;;;;;;-1.90;77.51;100930.78;10415306;28;20064;-73
2022/03/08 03:33:26;;;;;;;6.70;6.00;;;;;;;-1.89;77.79;100940.25;10414663;28;20121;-74
2022/03/08 03:38:28;;;;;;;8.05;6.13;;;;;;;-2.38;77.98;100938.59;10397954;28;20045;-73
2022/03/08 03:43:29;;;;;;;6.72;6.03;;;;;;;-2.59;79.86;100944.72;10416064;28;20049;-73
2022/03/08 03:48:32;;;;;;;6.88;6.18;;;;;;;-2.74;80.18;100951.91;10421526;28;20099;-73
2022/03/08 03:53:33;;;;;;;7.43;6.22;;;;;;;-2.73;80.56;100943.34;10403590;28;20049;-73
2022/03/08 03:58:35;;;;;;;6.57;5.95;;;;;;;-2.77;80.38;100951.78;10404190;28;20100;-73
2022/03/08 04:03:37;;;;;;;6.65;5.95;;;;;;;-2.70;80.36;100953.78;10476999;22;20479;-71
2022/03/08 04:08:38;;;;;;;6.95;6.25;;;;;;;-2.62;80.34;100954.91;10508463;28;20044;-71
2022/03/08 04:13:44;;;;;;;7.20;6.50;;;;;;;-2.42;79.59;100959.91;10507562;28;20059;-72
2022/03/08 04:18:46;;;;;;;8.10;7.30;;;;;;;-2.73;79.38;100963.06;10507314;28;20100;-71
2022/03/08 04:23:47;;;;;;;7.53;6.82;;;;;;;-2.57;80.08;100950.81;10489953;28;20045;-71
2022/03/08 04:28:49;;;;;;;10.23;6.97;;;;;;;-2.78;80.17;100952.63;10489110;28;20048;-71
2022/03/08 04:33:50;;;;;;;7.85;7.10;;;;;;;-2.91;81.15;100960.69;10509844;28;20044;-72
2022/03/08 04:38:52;;;;;;;8.57;7.75;;;;;;;-2.93;81.24;100952.91;10507160;28;20452;-72
2022/03/08 04:43:53;;;;;;;8.30;7.53;;;;;;;-2.97;81.65;100958.75;10490373;28;20044;-72
2022/03/08 04:48:55;;;;;;;8.90;8.10;;;;;;;-2.99;82.12;100962.09;10490207;28;20058;-72
2022/03/08 04:53:57;;;;;;;9.18;8.30;;;;;;;-2.46;80.94;100960.63;10509333;28;20048;-72
2022/03/08 04:58:59;;;;;;;10.15;9.00;;;;;;;-2.47;80.79;100948.56;10505795;28;20124;-72
2022/03/08 05:04:00;;;;;;;10.90;9.40;;;;;;;-2.75;81.38;100949.25;10506228;28;20056;-72
2022/03/08 05:09:03;;;;;;;11.73;9.50;;;;;;;-2.68;81.92;100953.81;10507050;28;20041;-71
2022/03/08 05:14:05;;;;;;;8.48;7.68;;;;;;;-3.03;82.61;100965.38;10491674;28;20044;-71
2022/03/08 05:19:06;;;;;;;11.23;9.75;;;;;;;-2.90;83.67;100960.75;10505744;28;20040;-71
2022/03/08 05:24:08;;;;;;;15.38;12.18;;;;;;;-2.94;82.44;100968.28;10506161;28;20036;-71
2022/03/08 05:29:10;;;;;;;16.70;12.48;;;;;;;-2.71;81.80;100967.44;10488643;28;20378;-71
2022/03/08 05:34:14;;;;;;;13.65;12.25;;;;;;;-2.73;81.73;100963.94;10506333;28;20056;-71
2022/03/08 05:39:16;;;;;;;17.55;12.25;;;;;;;-2.98;82.59;100975.00;10507262;28;20036;-72
2022/03/08 05:44:17;;;;;;;16.73;14.95;;;;;;;-3.03;83.30;100983.38;10504656;28;20040;-72
2022/03/08 05:49:19;;;;;;;16.25;13.88;;;;;;;-2.87;83.09;100985.72;10505991;28;20051;-72
2022/03/08 05:54:21;;;;;;;16.25;13.00;;;;;;;-2.96;83.43;100993.09;10505388;28;20074;-73
2022/03/08 05:59:22;;;;;;;20.02;14.95;;;;;;;-2.77;84.27;100992.09;10474041;28;20052;-71
2022/03/08 06:04:24;;;;;;;15.60;14.00;;;;;;;-2.99;83.85;100998.13;10485790;28;20040;-72
2022/03/08 06:09:26;;;;;;;16.70;13.73;;;;;;;-2.82;84.24;101004.78;10485507;28;20051;-72
2022/03/08 06:14:28;;;;;;;16.40;13.43;;;;;;;-2.59;86.04;101005.63;10488554;28;20064;-72
2022/03/08 06:19:29;;;;;;;11.02;10.00;;;;;;;0.74;81.42;101002.78;10489608;28;20045;-73
2022/03/08 06:24:31;;;;;;;9.60;8.70;;;;;;;2.43;66.47;101009.63;10503332;28;20139;-72
2022/03/08 06:29:33;;;;;;;13.15;9.32;;;;;;;2.66;67.85;101012.63;10486112;28;20116;-72
2022/03/08 06:34:34;;;;;;;8.55;7.68;;;;;;;3.83;62.00;101011.63;10504101;28;20097;-72
2022/03/08 06:39:36;;;;;;;9.90;8.82;;;;;;;3.46;58.51;101026.78;10486420;28;20048;-72
2022/03/08 06:44:40;;;;;;;9.07;8.27;;;;;;;2.64;60.45;101024.72;10485288;28;20541;-71
2022/03/08 06:49:42;;;;;;;11.85;8.90;;;;;;;2.04;64.02;101028.00;10502650;28;20079;-71
2022/03/08 06:54:45;;;;;;;10.00;9.00;;;;;;;2.34;63.55;101032.84;10486513;28;20057;-71
2022/03/08 06:59:47;;;;;;;11.73;9.73;;;;;;;3.10;60.26;101033.22;10512081;28;20037;-71
2022/03/08 07:04:48;;;;;;;11.18;10.07;;;;;;;3.29;58.97;101024.81;10492192;28;20472;-71
2022/03/08 07:09:50;;;;;;;10.25;9.40;;;;;;;2.95;59.40;101043.38;10506712;28;20113;-72
2022/03/08 07:14:52;;;;;;;10.10;9.20;;;;;;;2.21;62.30;101034.38;10486055;28;20572;-73
2022/03/08 07:19:53;;;;;;;9.27;8.50;;;;;;;2.51;61.89;101039.19;10506418;28;20036;-72
2022/03/08 07:24:55;;;;;;;10.30;9.32;;;;;;;1.68;64.92;101031.63;10513544;28;20397;-71
2022/03/08 07:29:57;;;;;;;12.75;10.68;;;;;;;1.70;66.08;101036.81;10510224;28;20044;-73
2022/03/08 07:34:59;;;;;;;11.80;10.80;;;;;;;1.65;66.30;101022.91;10510881;28;20112;-74
2022/03/08 07:40:04;;;;;;;12.77;11.00;;;;;;;1.20;68.00;101032.31;10492194;28;20036;-71
2022/03/08 07:45:06;;;;;;;11.55;10.45;;;;;;;1.30;68.21;101033.41;10512497;28;20109;-73
2022/03/08 07:50:08;;;;;;;13.27;10.88;;;;;;;1.47;67.31;101033.75;10508515;28;20051;-72
2022/03/08 07:55:10;;;;;;;12.25;10.98;;;;;;;1.49;67.23;101043.31;10492275;28;20041;-72
2022/03/08 08:00:12;;;;;;;13.43;12.02;;;;;;;1.41;68.19;101034.47;10490874;28;20041;-72
2022/03/08 08:05:15;;;;;;;13.07;11.77;;;;;;;1.83;66.95;101035.34;10493798;28;20044;-72
2022/03/08 08:10:16;;;;;;;12.27;10.95;;;;;;;1.70;67.61;101032.50;10497204;28;20102;-71
2022/03/08 08:15:18;;;;;;;11.57;10.52;;;;;;;1.71;68.63;101028.19;10513290;28;20553;-72
2022/03/08 08:20:21;;;;;;;14.25;11.25;;;;;;;1.86;67.34;101023.34;10512620;28;20040;-72
2022/03/08 08:25:23;;;;;;;13.80;11.70;;;;;;;2.12;66.84;101025.53;10511120;28;20064;-71
2022/03/08 08:30:26;;;;;;;11.63;10.52;;;;;;;2.51;65.55;101031.41;10511645;28;20043;-73
2022/03/08 08:35:27;;;;;;;11.65;10.40;;;;;;;3.07;63.47;101025.38;10509785;28;20462;-72
2022/03/08 08:40:29;;;;;;;12.18;11.07;;;;;;;2.66;65.17;101024.75;10509966;28;20040;-72
2022/03/08 08:45:31;;;;;;;12.60;11.30;;;;;;;3.30;63.74;101036.09;10492761;28;20056;-72
2022/03/08 08:50:35;;;;;;;13.73;11.55;;;;;;;3.49;62.64;101032.88;10491534;28;20047;-71
2022/03/08 08:55:37;;;;;;;14.85;10.48;;;;;;;3.38;62.67;101034.47;10510537;28;20124;-73
2022/03/08 09:00:38;;;;;;;11.73;10.25;;;;;;;3.53;62.66;101029.47;10506449;28;20068;-72
2022/03/08 09:05:45;;;;;;;10.10;7.82;;;;;;;3.54;62.11;101033.84;10490704;28;20460;-71
2022/03/08 09:10:46;;;;;;;8.18;7.18;;;;;;;3.95;61.23;101027.38;10494451;28;20132;-72
2022/03/08 09:15:48;;;;;;;6.78;6.18;;;;;;;4.12;61.08;101030.13;10508945;28;20132;-72
2022/03/08 09:20:53;;;;;;;10.02;7.32;;;;;;;4.58;58.46;101015.84;10508240;28;20130;-72
2022/03/08 09:25:55;;;;;;;8.80;6.50;;;;;;;4.52;58.72;101007.97;10507055;28;20040;-72
2022/03/08 09:30:59;;;;;;;6.60;5.85;;;;;;;5.04;57.53;101001.41;10488916;28;20452;-72
2022/03/08 09:36:01;;;;;;;7.57;6.68;;;;;;;5.30;56.83;101001.53;10491501;28;20052;-73
2022/03/08 09:41:03;;;;;;;9.23;6.05;;;;;;;5.06;56.09;101009.25;10488854;28;20044;-72
2022/03/08 09:46:06;;;;;;;9.93;5.90;;;;;;;5.41;55.77;101012.03;10510933;28;20055;-71
2022/03/08 09:51:08;;;;;;;6.32;5.20;;;;;;;5.46;55.12;101018.16;10510503;28;20096;-72
2022/03/08 09:56:10;;;;;;;8.13;6.15;;;;;;;5.60;54.57;101004.31;10506089;28;20036;-72
2022/03/08 10:01:12;;;;;;;9.07;5.60;;;;;;;5.74;53.79;101002.59;10505032;28;20041;-72
2022/03/08 10:06:14;;;;;;;8.85;6.25;;;;;;;6.15;52.63;101004.47;10515666;22;20040;-72
2022/03/08 10:11:17;;;;;;;6.22;5.63;;;;;;;6.77;52.04;100994.09;10501141;28;20524;-71
2022/03/08 10:16:25;;;;;;;5.95;5.35;;;;;;;7.24;50.63;100979.16;10482720;28;20052;-71
2022/03/08 10:21:32;;;;;;;7.97;5.90;;;;;;;7.22;50.02;100989.66;10501455;28;20103;-71
2022/03/08 10:26:42;;;;;;;;;;;;;;;7.21;49.92;100980.03;10501619;28;20051;-70
2022/03/08 10:31:45;;;;;;;6.85;5.00;;;;;;;6.95;49.35;100972.28;10500386;28;19974;-71
2022/03/08 10:37:12;;;;;;;5.57;4.25;;;;;;;7.55;47.97;100964.22;10500357;28;20049;-72
2022/03/08 10:42:19;;;;;;;5.88;5.03;;;;;;;7.75;48.60;100972.00;10504930;28;20482;-70
2022/03/08 10:47:21;;;;;;;7.18;4.80;;;;;;;7.99;47.33;100971.84;10542394;28;20486;-71
2022/03/08 10:52:34;;;;;;;4.82;4.28;;;;;;;8.02;46.02;100976.19;10544117;28;20055;-71
2022/03/08 10:57:38;;;;;;;5.13;3.88;;;;;;;8.20;46.69;100975.22;10550218;28;20047;-71
2022/03/08 11:03:02;;;;;;;5.75;4.63;;;;;;;8.02;46.33;100963.13;10533787;28;20115;-71
2022/03/08 11:08:05;;;;;;;5.30;4.03;;;;;;;8.48;45.46;100965.41;10550895;28;20077;-72
2022/03/08 11:13:09;;;;;;;4.90;4.20;;;;;;;8.45;45.13;100944.47;10532012;28;20043;-70
2022/03/08 11:18:12;;;;;;;5.65;4.43;;;;;;;9.10;47.43;100949.06;10550816;28;20378;-70
2022/03/08 11:23:14;;;;;;;4.35;3.95;;;;;;;9.51;46.23;100944.22;10530816;28;20568;-71
2022/03/08 11:28:18;;;;;;;4.65;3.92;;;;;;;10.25;44.72;100949.31;10548820;28;20489;-70
2022/03/08 11:33:58;;;;;;;4.82;3.05;;;;;;;10.05;40.79;100939.97;10529769;28;20046;-71
2022/03/08 11:39:18;;;;;;;4.05;3.33;;;;;;;10.11;40.11;100953.00;10532107;28;20097;-71
2022/03/08 11:44:28;;;;;;;3.80;2.78;;;;;;;9.02;40.57;100948.28;10548455;28;20048;-71
2022/03/08 11:49:42;;;;;;;3.53;3.00;;;;;;;9.29;39.39;100943.59;10547970;28;20032;-71
2022/03/08 11:54:53;;;;;;;4.50;3.13;;;;;;;9.23;39.50;100952.44;10528589;28;20102;-72
2022/03/08 12:00:19;;;;;;;3.55;2.42;;;;;;;9.84;41.20;100943.75;10544410;28;20044;-72
2022/03/08 12:05:39;;;;;;;3.22;1.80;;;;;;;9.30;37.74;100934.88;10543485;28;20488;-72
2022/03/08 12:10:43;;;;;;;2.72;1.70;;;;;;;9.40;36.43;100926.00;10545675;28;20522;-71
2022/03/08 12:16:10;;;;;;;7.68;1.20;;;;;;;9.30;38.34;100920.00;10546946;28;20048;-71
2022/03/08 12:21:15;;;;;;;2.50;1.30;;;;;;;9.81;35.88;100911.41;10547326;28;20447;-71
2022/03/08 12:26:28;;;;;;;1.25;1.08;;;;;;;9.56;35.46;100898.66;10547259;28;20044;-72
2022/03/08 12:32:05;;;;;;;1.20;0.90;;;;;;;8.69;33.88;100886.59;10514248;28;20050;-71
2022/03/08 12:37:10;;;;;;;0.90;0.63;;;;;;;8.46;32.89;100878.09;10512577;28;20048;-71
2022/03/08 12:42:21;;;;;;;1.15;0.60;;;;;;;8.06;31.48;100876.66;10528214;28;20044;-72
2022/03/08 12:47:53;;;;;;;1.95;0.50;;;;;;;7.92;32.19;100872.41;10546211;28;20109;-70
2022/03/08 12:53:00;;;;;;;1.60;0.65;;;;;;;7.75;33.54;100856.84;10548222;28;20550;-71
2022/03/08 12:58:26;;;;;;;1.15;0.80;;;;;;;7.66;31.79;100849.94;10529031;28;20430;-71
2022/03/08 13:03:34;;;;;;;2.92;0.80;;;;;;;7.42;34.09;100843.09;10547888;28;20043;-71
2022/03/08 13:08:39;;;;;;;0.98;0.50;;;;;;;7.45;31.02;100848.31;10546485;28;20075;-72
2022/03/08 13:13:43;;;;;;;0.50;0.40;;;;;;;7.51;32.48;100843.03;10546393;28;20040;-72
2022/03/08 13:18:45;;;;;;;2.05;0.60;;;;;;;7.50;33.83;100851.75;10546369;28;20467;-70
2022/03/08 13:23:48;;;;;;;1.02;0.70;;;;;;;7.58;32.85;100842.13;10546008;28;20192;-71
2022/03/08 13:28:52;;;;;;;1.35;0.68;;;;;;;7.52;33.22;100831.69;10547352;28;20060;-71
2022/03/08 13:33:55;;;;;;;1.17;0.80;;;;;;;7.33;31.77;100830.06;10528288;28;20058;-71
2022/03/08 13:38:57;;;;;;;2.15;0.82;;;;;;;7.32;34.72;100831.81;10527233;28;20048;-72
2022/03/08 13:44:02;;;;;;;0.80;0.60;;;;;;;7.22;34.12;100829.28;10544715;28;20048;-71
2022/03/08 13:49:06;;;;;;;1.05;0.60;;;;;;;7.35;33.18;100830.94;10545028;28;20040;-72
2022/03/08 13:54:09;;;;;;;2.28;0.70;;;;;;;7.65;33.41;100828.97;10544828;28;20044;-71
2022/03/08 13:59:27;;;;;;;0.98;0.65;;;;;;;7.38;32.94;100838.75;10545236;28;20409;-72
2022/03/08 14:04:29;;;;;;;1.40;0.70;;;;;;;7.54;33.22;100829.06;10527579;28;20054;-70
2022/03/08 14:09:31;;;;;;;2.88;0.50;;;;;;;7.49;32.46;100828.22;10545007;28;20040;-71
2022/03/08 14:14:33;;;;;;;1.08;0.50;;;;;;;7.61;31.13;100822.91;10526485;28;20040;-71
2022/03/08 14:19:45;;;;;;;1.08;0.60;;;;;;;7.94;30.28;100819.16;10546494;28;20040;-71
2022/03/08 14:25:02;;;;;;;1.27;0.50;;;;;;;7.67;31.59;100815.03;10528046;28;20501;-71
2022/03/08 14:30:06;;;;;;;0.85;0.68;;;;;;;7.77;31.42;100816.69;10530425;28;20219;-70
2022/03/08 14:35:11;;;;;;;1.73;0.75;;;;;;;7.98;31.32;100814.78;10530856;28;20500;-70
2022/03/08 14:40:40;;;;;;;1.98;0.77;;;;;;;7.91;31.07;100811.31;10545115;28;20031;-72
2022/03/08 14:45:41;;;;;;;0.90;0.80;;;;;;;7.77;31.90;100814.06;10544037;28;20044;-72
2022/03/08 14:51:04;;;;;;;1.88;0.70;;;;;;;7.68;32.00;100803.66;10543112;28;20482;-72
2022/03/08 14:56:10;;;;;;;1.67;0.77;;;;;;;7.79;31.67;100808.81;10523452;28;20523;-70
2022/03/08 15:01:13;;;;;;;1.75;0.77;;;;;;;7.76;31.83;100807.09;10541800;28;20047;-72
2022/03/08 15:06:15;;;;;;;2.05;0.82;;;;;;;7.82;31.94;100803.56;10523826;28;20055;-73
2022/03/08 15:11:16;;;;;;;1.52;0.68;;;;;;;7.73;32.22;100801.00;10542818;28;20131;-72
2022/03/08 15:16:18;;;;;;;1.80;0.73;;;;;;;7.71;33.09;100808.88;10543084;28;20055;-72
2022/03/08 15:21:20;;;;;;;1.15;0.80;;;;;;;7.73;32.47;100807.09;10524231;28;20044;-72
2022/03/08 15:26:26;;;;;;;1.38;0.70;;;;;;;7.44;33.03;100798.63;10542072;28;20052;-71
2022/03/08 15:31:28;;;;;;;1.55;0.73;;;;;;;7.55;32.44;100805.50;10542970;28;20435;-71
2022/03/08 15:36:30;;;;;;;1.80;0.85;;;;;;;7.55;32.99;100815.97;10542884;28;20055;-72
2022/03/08 15:41:35;;;;;;;1.77;1.00;;;;;;;7.46;32.74;100815.16;10546758;28;20126;-71
2022/03/08 15:46:43;;;;;;;1.60;0.80;;;;;;;7.51;33.14;100822.09;10515930;28;20048;-72
2022/03/08 15:51:45;;;;;;;1.65;1.00;;;;;;;7.53;33.15;100830.81;10531964;28;20082;-71
2022/03/08 15:56:47;;;;;;;1.23;0.95;;;;;;;7.42;34.16;100837.84;10550060;28;20040;-71
2022/03/08 16:01:49;;;;;;;1.60;1.10;;;;;;;7.36;34.30;100831.81;10551754;28;20048;-71
2022/03/08 16:06:51;;;;;;;2.33;1.45;;;;;;;7.26;34.57;100828.34;10487916;22;20080;-73
2022/03/08 16:11:52;;;;;;;1.70;1.40;;;;;;;6.95;34.59;100827.63;10410576;28;20041;-75
2022/03/08 16:16:57;;;;;;;1.65;1.23;;;;;;;6.82;34.67;100827.69;10425071;28;20060;-73
2022/03/08 16:21:59;;;;;;;2.80;1.70;;;;;;;6.75;35.27;100827.72;10425007;28;20044;-72
2022/03/08 16:27:01;;;;;;;3.00;1.52;;;;;;;6.90;36.11;100832.88;10408370;28;20060;-73
2022/03/08 16:32:03;;;;;;;2.45;1.77;;;;;;;6.56;37.28;100832.13;10408039;28;20041;-74
2022/03/08 16:37:05;;;;;;;2.63;1.83;;;;;;;6.44;36.92;100837.38;10424927;28;20034;-72
2022/03/08 16:42:07;;;;;;;2.80;1.70;;;;;;;6.65;37.14;100836.47;10425694;28;20041;-73
2022/03/08 16:47:10;;;;;;;2.85;2.05;;;;;;;6.45;37.67;100847.81;10426251;28;20054;-74
2022/03/08 16:52:11;;;;;;;2.63;1.85;;;;;;;6.14;38.07;100841.78;10409321;28;20033;-73
2022/03/08 16:57:13;;;;;;;2.58;1.90;;;;;;;6.15;38.18;100846.09;10425135;28;20133;-73
2022/03/08 17:02:17;;;;;;;3.15;1.98;;;;;;;5.74;39.13;100848.69;10425914;28;20391;-73
2022/03/08 17:07:18;;;;;;;2.72;1.90;;;;;;;5.99;39.40;100854.84;10424565;28;20128;-74
2022/03/08 17:12:22;;;;;;;5.25;3.13;;;;;;;5.98;39.08;100855.72;10427874;28;20498;-74
2022/03/08 17:17:24;;;;;;;3.58;3.22;;;;;;;5.78;39.80;100860.88;10408176;28;20064;-73
2022/03/08 17:22:29;;;;;;;4.35;3.13;;;;;;;5.66;41.26;100860.84;10405090;28;20068;-72
2022/03/08 17:27:32;;;;;;;5.10;3.45;;;;;;;5.21;41.67;100862.50;10405482;28;20049;-72
2022/03/08 17:32:33;;;;;;;7.43;3.30;;;;;;;5.35;41.93;100866.00;10425963;28;20056;-72
2022/03/08 17:37:37;;;;;;;5.38;3.15;;;;;;;5.18;42.91;100872.88;10406298;28;20057;-72
2022/03/08 17:42:43;;;;;;;4.97;2.97;;;;;;;5.15;44.85;100872.91;10423828;28;20033;-73
2022/03/08 17:47:44;;;;;;;4.82;3.20;;;;;;;4.91;46.74;100890.16;10405560;28;20056;-73
2022/03/08 17:52:58;;;;;;;5.53;3.42;;;;;;;4.61;45.53;100893.47;10422701;28;20209;-74
2022/03/08 17:58:00;;;;;;;5.55;4.00;;;;;;;4.29;46.55;100903.66;10406470;28;20049;-72
2022/03/08 18:03:01;;;;;;;5.75;3.30;;;;;;;4.07;48.52;100906.94;10420210;28;20129;-74
2022/03/08 18:08:04;;;;;;;14.93;5.20;;;;;;;4.06;48.33;100903.47;10421778;28;20045;-73
2022/03/08 18:13:06;;;;;;;7.47;4.15;;;;;;;3.92;49.36;100908.53;10423250;28;20109;-72
2022/03/08 18:18:07;;;;;;;18.73;6.70;;;;;;;3.80;48.16;100914.50;10423543;28;20375;-72
2022/03/08 18:23:10;;;;;;;9.02;6.57;;;;;;;3.59;48.97;100913.44;10405059;28;20052;-74
2022/03/08 18:28:12;;;;;;;7.88;6.65;;;;;;;3.22;49.77;100913.84;10424340;28;20120;-74
2022/03/08 18:33:16;;;;;;;8.80;6.95;;;;;;;2.84;50.60;100923.78;10388916;28;20053;-74
2022/03/08 18:38:17;;;;;;;12.73;10.30;;;;;;;2.81;52.13;100928.91;10404478;28;20069;-75
2022/03/08 18:43:22;;;;;;;15.32;11.82;;;;;;;3.13;52.88;100925.88;10422929;28;20045;-75
2022/03/08 18:48:24;;;;;;;15.48;12.40;;;;;;;3.03;51.46;100925.75;10387897;28;20041;-73
2022/03/08 18:53:25;;;;;;;17.17;14.27;;;;;;;3.06;50.95;100919.72;10422669;28;20132;-74
2022/03/08 18:58:30;;;;;;;69.50;37.15;;;;;;;3.00;51.37;100933.50;10405300;28;20049;-74
2022/03/08 19:03:36;;;;;;;37.10;22.80;;;;;;;2.87;52.59;100920.31;10407731;28;20103;-74
2022/03/08 19:08:38;;;;;;;33.00;23.75;;;;;;;2.66;52.91;100915.72;10407019;28;20411;-74
2022/03/08 19:13:40;;;;;;;32.03;22.27;;;;;;;2.62;53.61;100920.00;10406348;28;20044;-74
2022/03/08 19:18:45;;;;;;;31.23;22.40;;;;;;;2.61;53.59;100917.34;10431327;28;20041;-74
2022/03/08 19:23:50;;;;;;;32.53;23.17;;;;;;;2.10;54.66;100920.88;10416563;28;20069;-74
2022/03/08 19:28:55;;;;;;;;;;;;;;;2.42;54.32;100921.41;10413106;28;20396;-74
2022/03/08 19:33:57;;;;;;;23.98;18.85;;;;;;;1.93;55.42;100926.66;10427924;28;19952;-74
2022/03/08 19:38:58;;;;;;;23.30;19.45;;;;;;;1.71;55.87;100921.94;10411132;28;20137;-74
2022/03/08 19:44:02;;;;;;;20.85;17.83;;;;;;;1.71;57.20;100922.78;10430019;28;20037;-75
2022/03/08 19:49:05;;;;;;;24.67;19.50;;;;;;;1.65;57.57;100929.59;10428421;28;20045;-75
2022/03/08 19:54:06;;;;;;;28.13;17.35;;;;;;;2.00;58.14;100914.69;10428053;28;20053;-74
2022/03/08 19:59:08;;;;;;;39.17;22.70;;;;;;;1.83;57.42;100921.28;10427650;28;20120;-74
2022/03/08 20:04:26;;;;;;;44.08;26.38;;;;;;;1.52;58.33;100912.94;10427636;28;20049;-74
2022/03/08 20:09:28;;;;;;;53.65;29.38;;;;;;;1.59;57.54;100909.59;10428086;28;20041;-74
2022/03/08 20:14:32;;;;;;;34.63;22.05;;;;;;;1.57;57.37;100915.63;10427643;28;20048;-74
2022/03/08 20:19:34;;;;;;;26.25;21.15;;;;;;;1.09;58.42;100921.56;10408954;28;20526;-75
2022/03/08 20:24:36;;;;;;;28.73;16.58;;;;;;;1.20;59.00;100933.03;10425755;28;20041;-74
2022/03/08 20:29:38;;;;;;;22.05;15.73;;;;;;;1.39;58.62;100929.97;10427808;28;20503;-74
2022/03/08 20:34:39;;;;;;;34.30;19.35;;;;;;;1.29;58.29;100934.94;10425411;28;20092;-75
2022/03/08 20:39:41;;;;;;;22.08;16.17;;;;;;;1.31;59.05;100938.44;10426074;28;20045;-75
2022/03/08 20:44:43;;;;;;;17.67;15.57;;;;;;;0.75;59.95;100941.53;10425810;28;20453;-75
2022/03/08 20:49:45;;;;;;;17.92;14.60;;;;;;;0.77;60.60;100947.66;10427114;28;20049;-75
2022/03/08 20:54:46;;;;;;;24.85;13.93;;;;;;;0.67;61.93;100953.47;10424011;28;20064;-74
2022/03/08 20:59:48;;;;;;;13.05;11.68;;;;;;;0.97;60.79;100948.97;10423289;28;20046;-75
2022/03/08 21:04:50;;;;;;;19.20;12.32;;;;;;;0.79;61.24;100947.66;10407676;28;20049;-74
2022/03/08 21:09:52;;;;;;;16.80;12.75;;;;;;;0.42;62.08;100957.16;10425539;28;20056;-75
2022/03/08 21:14:55;;;;;;;12.07;10.88;;;;;;;0.32;62.37;100948.31;10424331;28;20046;-75
2022/03/08 21:19:56;;;;;;;11.25;8.88;;;;;;;0.10;62.59;100946.91;10424627;28;20046;-75
2022/03/08 21:24:58;;;;;;;9.40;8.50;;;;;;;0.11;62.98;100947.78;10448529;28;20044;-74
2022/03/08 21:30:00;;;;;;;8.15;7.35;;;;;;;0.01;63.58;100948.41;10465168;28;20098;-75
2022/03/08 21:35:03;;;;;;;8.93;7.57;;;;;;;0.00;63.68;100950.13;10467912;28;20056;-75
2022/03/08 21:40:05;;;;;;;11.05;7.57;;;;;;;-0.05;63.57;100944.78;10464367;28;20074;-75
2022/03/08 21:45:08;;;;;;;11.98;9.00;;;;;;;-0.07;63.97;100943.03;10464098;28;20116;-71
2022/03/08 21:50:10;;;;;;;16.63;9.82;;;;;;;-0.04;64.19;100936.22;10462785;28;20544;-72
2022/03/08 21:55:11;;;;;;;17.60;11.68;;;;;;;-0.12;64.32;100937.72;10448553;28;20080;-72
2022/03/08 22:00:13;;;;;;;13.93;11.57;;;;;;;0.02;65.34;100942.38;10464378;28;20095;-73
2022/03/08 22:05:15;;;;;;;15.82;10.82;;;;;;;-0.13;64.95;100936.00;10485832;22;20044;-72
2022/03/08 22:10:17;;;;;;;15.27;12.63;;;;;;;-0.36;65.99;100937.94;10501571;28;20044;-73
2022/03/08 22:15:18;;;;;;;13.27;11.63;;;;;;;-0.39;66.51;100939.59;10500131;28;20067;-71
2022/03/08 22:20:20;;;;;;;58.00;26.25;;;;;;;-0.33;66.46;100935.44;10481829;28;20140;-71
2022/03/08 22:25:22;;;;;;;72.30;32.53;;;;;;;-0.38;66.44;100941.34;10500268;28;20049;-72
2022/03/08 22:30:23;;;;;;;30.15;20.17;;;;;;;-0.37;66.84;100948.25;10499700;28;20110;-70
2022/03/08 22:35:25;;;;;;;15.30;10.68;;;;;;;0.00;66.35;100960.44;10499290;28;20055;-71
2022/03/08 22:40:27;;;;;;;11.77;10.60;;;;;;;0.05;65.93;100970.91;10499324;28;20040;-71
2022/03/08 22:45:29;;;;;;;12.55;10.48;;;;;;;-0.09;65.66;100957.59;10481587;28;20405;-71
2022/03/08 22:55:51;;;;;;;13.60;10.43;;;;;;;-0.40;66.76;100961.06;10508858;28;20071;-71
2022/03/08 23:00:53;;;;;;;17.17;11.40;;;;;;;-0.51;67.44;100968.53;10490616;28;20054;-72
2022/03/08 23:05:54;;;;;;;12.43;9.98;;;;;;;-0.88;67.55;100971.78;10508625;28;20040;-73
2022/03/08 23:10:56;;;;;;;13.73;11.18;;;;;;;-1.03;68.87;100975.63;10506969;28;20047;-71
2022/03/08 23:15:58;;;;;;;14.93;11.63;;;;;;;-0.88;69.54;100974.38;10506684;28;20033;-71
2022/03/08 23:21:00;;;;;;;22.23;11.45;;;;;;;-0.38;68.36;100974.91;10505624;28;20086;-71